Time;durP1;ratioP1;P1;durP2;ratioP2;P2;SDS_P1;SDS_P2;PMS_P1;PMS_P2;Temp;Humidity;BMP_temperature;BMP_pressure;BME280_temperature;BME280_humidity;BME280_pressure;Samples;Min_cycle;Max_cycle;Signal;HPM_P1;HPM_P2
2024/04/04 00:01:34;;;;;;;5.03;0.32;;;9.40;99.90;;;;;;5014414;28;20788;-84
2024/04/04 00:03:59;;;;;;;5.30;0.70;;;9.40;99.90;;;;;;5011353;28;20057;-82
2024/04/04 00:06:25;;;;;;;3.53;0.45;;;9.30;99.90;;;;;;5004998;28;20036;-82
2024/04/04 00:08:51;;;;;;;7.63;0.50;;;9.30;99.90;;;;;;5016383;28;20025;-81
2024/04/04 00:11:21;;;;;;;7.38;0.35;;;9.20;99.90;;;;;;5014131;28;20037;-82
2024/04/04 00:13:47;;;;;;;5.10;0.40;;;9.20;99.90;;;;;;5011318;28;20685;-82
2024/04/04 00:16:13;;;;;;;5.80;0.50;;;9.10;99.90;;;;;;5027714;28;20052;-82
2024/04/04 00:18:39;;;;;;;5.93;0.60;;;9.10;99.90;;;;;;5022550;28;20035;-81
2024/04/04 00:21:05;;;;;;;7.72;0.40;;;9.10;99.90;;;;;;5014476;28;20512;-82
2024/04/04 00:23:31;;;;;;;5.75;0.40;;;9.10;99.90;;;;;;5034759;28;20548;-82
2024/04/04 00:25:56;;;;;;;4.82;0.65;;;9.00;99.90;;;;;;5037436;28;20083;-82
2024/04/04 00:28:22;;;;;;;5.78;0.50;;;9.00;99.90;;;;;;5033155;28;20025;-82
2024/04/04 00:30:47;;;;;;;4.93;0.40;;;8.90;99.90;;;;;;5046940;28;20087;-84
2024/04/04 00:33:13;;;;;;;10.38;0.40;;;8.90;99.90;;;;;;5034629;28;20064;-84
2024/04/04 00:35:39;;;;;;;4.40;0.40;;;8.90;99.90;;;;;;5039228;28;20029;-84
2024/04/04 00:38:04;;;;;;;4.63;0.50;;;8.90;99.90;;;;;;5017086;28;20022;-84
2024/04/04 00:40:39;;;;;;;6.43;0.80;;;9.00;99.90;;;;;;5035615;28;20041;-84
2024/04/04 00:43:05;;;;;;;5.30;0.40;;;9.00;99.90;;;;;;5036373;28;20033;-83
2024/04/04 00:45:31;;;;;;;8.43;1.23;;;9.00;99.90;;;;;;5016677;28;20040;-84
2024/04/04 00:47:58;;;;;;;7.85;0.60;;;9.00;99.90;;;;;;5037670;28;20040;-84
2024/04/04 00:50:24;;;;;;;5.15;0.70;;;9.00;99.90;;;;;;5034479;28;20095;-84
2024/04/04 00:52:51;;;;;;;3.40;0.40;;;9.10;99.90;;;;;;5036736;28;20036;-84
2024/04/04 00:55:16;;;;;;;5.32;0.52;;;9.20;99.90;;;;;;5033914;28;20033;-84
2024/04/04 00:57:43;;;;;;;6.97;0.50;;;9.20;99.90;;;;;;5039453;28;20037;-84
2024/04/04 01:00:10;;;;;;;5.05;0.40;;;9.30;99.90;;;;;;5032315;28;20041;-83
2024/04/04 01:02:36;;;;;;;3.35;0.52;;;9.40;99.90;;;;;;5017994;28;20030;-83
2024/04/04 01:05:01;;;;;;;8.50;0.40;;;9.50;99.90;;;;;;5037418;28;20417;-81
2024/04/04 01:07:28;;;;;;;3.53;0.70;;;9.50;99.90;;;;;;5013708;28;20030;-81
2024/04/04 01:09:53;;;;;;;5.13;0.73;;;9.50;99.90;;;;;;5035340;28;20032;-80
2024/04/04 01:12:19;;;;;;;6.40;0.57;;;9.60;99.90;;;;;;5031405;28;20022;-79
2024/04/04 01:14:45;;;;;;;6.82;0.65;;;9.60;99.90;;;;;;5038082;28;20079;-79
2024/04/04 01:17:10;;;;;;;7.75;1.38;;;9.60;99.90;;;;;;5031924;28;20025;-79
2024/04/04 01:19:36;;;;;;;9.10;0.60;;;9.70;99.90;;;;;;5031705;28;20455;-82
2024/04/04 01:22:01;;;;;;;8.60;0.60;;;9.70;99.90;;;;;;5027288;28;20067;-82
2024/04/04 01:24:27;;;;;;;11.23;0.55;;;9.70;99.90;;;;;;5037093;28;20028;-80
2024/04/04 01:26:52;;;;;;;8.15;0.47;;;9.70;99.90;;;;;;5023612;28;20100;-80
2024/04/04 01:29:18;;;;;;;6.80;0.40;;;9.70;99.90;;;;;;5033573;28;20036;-80
2024/04/04 01:31:43;;;;;;;5.45;0.40;;;9.70;99.90;;;;;;5033217;28;20429;-80
2024/04/04 01:34:09;;;;;;;5.35;0.68;;;9.70;99.90;;;;;;5036641;28;20028;-79
2024/04/04 01:36:35;;;;;;;9.85;1.08;;;9.70;99.90;;;;;;5021436;28;20041;-79
2024/04/04 01:39:01;;;;;;;8.88;1.23;;;9.70;99.90;;;;;;5009262;28;20470;-79
2024/04/04 01:41:26;;;;;;;3.97;0.88;;;9.70;99.90;;;;;;5027954;28;20060;-79
2024/04/04 01:43:52;;;;;;;7.10;0.50;;;9.70;99.90;;;;;;5029957;28;20485;-79
2024/04/04 01:46:17;;;;;;;3.95;0.40;;;9.70;99.90;;;;;;5028791;28;20038;-79
2024/04/04 01:48:43;;;;;;;5.07;0.40;;;9.70;99.90;;;;;;5034427;28;20075;-79
2024/04/04 01:51:09;;;;;;;5.22;0.40;;;9.70;99.90;;;;;;5029091;28;20452;-78
2024/04/04 01:53:35;;;;;;;4.57;0.50;;;9.80;99.90;;;;;;5027060;28;20032;-79
2024/04/04 01:56:01;;;;;;;5.63;0.43;;;9.80;99.90;;;;;;5030723;28;20079;-81
2024/04/04 01:58:27;;;;;;;8.30;0.50;;;9.70;99.90;;;;;;5018266;28;20494;-79
2024/04/04 02:00:52;;;;;;;6.40;0.57;;;9.80;99.90;;;;;;5026833;28;20108;-79
2024/04/04 02:03:18;;;;;;;5.40;0.60;;;9.80;99.90;;;;;;5036112;28;20117;-79
2024/04/04 02:05:44;;;;;;;5.53;1.83;;;9.80;99.90;;;;;;5029465;28;20389;-79
2024/04/04 02:08:09;;;;;;;9.05;1.00;;;9.80;99.90;;;;;;5026679;28;20018;-79
2024/04/04 02:10:36;;;;;;;10.80;1.15;;;9.90;99.90;;;;;;5032400;28;20497;-79
2024/04/04 02:13:02;;;;;;;3.97;0.50;;;9.80;99.90;;;;;;5020476;28;20028;-79
2024/04/04 02:15:28;;;;;;;2.13;0.40;;;9.80;99.90;;;;;;5029226;28;20022;-79
2024/04/04 02:17:53;;;;;;;4.95;0.43;;;9.90;99.90;;;;;;5005266;28;20026;-78
2024/04/04 02:20:19;;;;;;;5.97;1.05;;;9.90;99.90;;;;;;5028070;28;20132;-80
2024/04/04 02:22:45;;;;;;;4.05;0.40;;;9.90;99.90;;;;;;5037173;28;20490;-80
2024/04/04 02:25:10;;;;;;;5.45;0.63;;;9.90;99.90;;;;;;5028899;28;20037;-80
2024/04/04 02:27:36;;;;;;;5.32;0.55;;;10.00;99.90;;;;;;5037428;28;20030;-80
2024/04/04 02:30:03;;;;;;;6.60;0.50;;;10.00;99.90;;;;;;5037721;28;20031;-79
2024/04/04 02:32:29;;;;;;;9.27;1.08;;;10.00;99.90;;;;;;5035287;28;20029;-80
2024/04/04 02:34:55;;;;;;;3.47;0.50;;;10.00;99.90;;;;;;5032601;28;20068;-80
2024/04/04 02:37:21;;;;;;;8.85;0.63;;;10.00;99.90;;;;;;5032800;28;20034;-80
2024/04/04 02:39:46;;;;;;;3.50;0.50;;;10.00;99.90;;;;;;5044031;28;20508;-81
2024/04/04 02:42:12;;;;;;;7.53;0.40;;;10.00;99.90;;;;;;5030757;28;20474;-80
2024/04/04 02:44:38;;;;;;;4.65;0.50;;;10.00;99.90;;;;;;5026340;28;20025;-80
2024/04/04 02:47:04;;;;;;;2.97;0.32;;;10.00;99.90;;;;;;5030997;28;20029;-80
2024/04/04 02:49:30;;;;;;;6.68;0.85;;;10.00;99.90;;;;;;5021130;28;20068;-80
2024/04/04 02:51:55;;;;;;;5.07;0.47;;;10.00;99.90;;;;;;5013978;28;20392;-81
2024/04/04 02:54:21;;;;;;;5.88;0.43;;;10.00;99.90;;;;;;5030656;28;20545;-80
2024/04/04 02:56:47;;;;;;;7.55;0.55;;;10.00;99.90;;;;;;5038282;28;20040;-80
2024/04/04 02:59:13;;;;;;;7.65;0.43;;;9.90;99.90;;;;;;5024671;28;20037;-80
2024/04/04 03:01:39;;;;;;;7.63;0.60;;;10.00;99.90;;;;;;5029018;28;20013;-82
2024/04/04 03:04:04;;;;;;;3.70;0.45;;;9.90;99.90;;;;;;5030053;28;20075;-82
2024/04/04 03:06:31;;;;;;;6.00;0.65;;;9.90;99.90;;;;;;5030401;28;20033;-83
2024/04/04 03:08:56;;;;;;;5.70;0.50;;;9.80;99.90;;;;;;5029136;28;20109;-83
2024/04/04 03:11:22;;;;;;;2.38;0.40;;;9.90;99.90;;;;;;5027342;28;20104;-83
2024/04/04 03:13:47;;;;;;;3.72;0.50;;;9.80;99.90;;;;;;5029293;28;20033;-82
2024/04/04 03:16:13;;;;;;;7.82;0.82;;;9.80;99.90;;;;;;5024920;28;20029;-82
2024/04/04 03:18:39;;;;;;;6.75;0.70;;;9.80;99.90;;;;;;5030598;28;20108;-82
2024/04/04 03:21:04;;;;;;;3.47;0.50;;;9.80;99.90;;;;;;5029398;28;20037;-82
2024/04/04 03:23:30;;;;;;;3.72;0.57;;;9.80;99.90;;;;;;5023548;28;20025;-82
2024/04/04 03:25:56;;;;;;;4.50;0.47;;;9.80;99.90;;;;;;5032102;28;20029;-85
2024/04/04 03:28:22;;;;;;;2.83;0.30;;;9.80;99.90;;;;;;5032861;28;20032;-82
2024/04/04 03:30:48;;;;;;;4.20;0.47;;;9.80;99.90;;;;;;5032235;28;20124;-81
2024/04/04 03:33:14;;;;;;;6.13;0.50;;;9.80;99.90;;;;;;5033311;28;20112;-81
2024/04/04 03:35:40;;;;;;;4.45;0.60;;;9.80;99.90;;;;;;5031766;28;20022;-80
2024/04/04 03:38:05;;;;;;;4.38;0.52;;;9.80;99.90;;;;;;5032457;28;20366;-80
2024/04/04 03:40:36;;;;;;;4.53;0.60;;;9.80;99.90;;;;;;5015000;28;20068;-86
2024/04/04 03:43:02;;;;;;;3.28;0.50;;;9.70;99.90;;;;;;5032200;28;20030;-86
2024/04/04 03:45:29;;;;;;;5.55;0.50;;;9.80;99.90;;;;;;5031973;28;20029;-86
2024/04/04 03:47:57;;;;;;;4.20;0.50;;;9.80;99.90;;;;;;5033767;28;20063;-81
2024/04/04 03:50:22;;;;;;;3.97;0.47;;;9.80;99.90;;;;;;5021485;28;20021;-85
2024/04/04 03:52:48;;;;;;;3.72;0.65;;;9.80;99.90;;;;;;5033971;28;20036;-85
2024/04/04 03:55:13;;;;;;;2.63;0.70;;;9.80;99.90;;;;;;5032239;28;20080;-85
2024/04/04 03:57:39;;;;;;;5.38;0.47;;;9.80;99.90;;;;;;5027687;28;20045;-84
2024/04/04 04:00:09;;;;;;;6.93;0.73;;;9.80;99.90;;;;;;5029116;28;20037;-83
2024/04/04 04:02:34;;;;;;;7.07;0.60;;;9.80;99.90;;;;;;5038433;28;20112;-83
2024/04/04 04:05:00;;;;;;;6.22;0.85;;;9.80;99.90;;;;;;5032549;28;20132;-84
2024/04/04 04:07:26;;;;;;;5.15;0.50;;;9.80;99.90;;;;;;5031810;28;20114;-86
2024/04/04 04:09:51;;;;;;;8.98;0.60;;;9.80;99.90;;;;;;5033080;28;20017;-86
2024/04/04 04:12:17;;;;;;;3.58;0.73;;;9.80;99.90;;;;;;5033288;28;20385;-85
2024/04/04 04:14:43;;;;;;;2.97;0.73;;;9.80;99.90;;;;;;5041218;28;20061;-85
2024/04/04 04:17:08;;;;;;;4.70;0.77;;;9.90;99.90;;;;;;5033386;28;20537;-85
2024/04/04 04:19:34;;;;;;;5.93;0.95;;;9.90;99.90;;;;;;5028073;28;20041;-85
2024/04/04 04:21:59;;;;;;;7.28;1.00;;;9.90;99.90;;;;;;5026896;28;20029;-85
2024/04/04 04:24:25;;;;;;;5.10;1.08;;;9.90;99.90;;;;;;5033130;28;20481;-85
2024/04/04 04:26:50;;;;;;;3.90;0.73;;;9.90;99.90;;;;;;5028836;28;20029;-84
2024/04/04 04:29:17;;;;;;;6.03;1.27;;;9.90;99.90;;;;;;5034964;28;20103;-86
2024/04/04 04:31:44;;;;;;;4.55;0.88;;;9.90;99.90;;;;;;5031882;28;20041;-87
2024/04/04 04:34:09;;;;;;;7.03;1.40;;;9.90;99.90;;;;;;5031478;28;20381;-88
2024/04/04 04:36:55;;;;;;;5.35;1.15;;;10.00;99.90;;;;;;5028209;28;20052;-88
2024/04/04 04:39:21;;;;;;;5.25;1.10;;;10.00;99.90;;;;;;5029557;28;20079;-87
2024/04/04 04:41:47;;;;;;;5.35;1.23;;;10.00;99.90;;;;;;5028826;28;20052;-88
2024/04/04 04:44:13;;;;;;;4.82;1.75;;;10.00;99.90;;;;;;5038597;28;20441;-86
2024/04/04 04:46:39;;;;;;;2.88;1.30;;;10.10;99.90;;;;;;5033738;28;20065;-86
2024/04/04 04:49:04;;;;;;;4.22;1.50;;;10.10;99.90;;;;;;5035148;28;20133;-86
2024/04/04 04:51:30;;;;;;;3.33;1.30;;;10.20;99.90;;;;;;5033579;28;20025;-86
2024/04/04 04:53:56;;;;;;;4.78;1.35;;;10.20;99.90;;;;;;5030664;28;20037;-87
2024/04/04 04:56:22;;;;;;;5.68;1.52;;;10.20;99.90;;;;;;5032591;28;20044;-86
2024/04/04 04:58:47;;;;;;;2.75;1.30;;;10.30;99.90;;;;;;5028176;28;20041;-88
2024/04/04 05:01:13;;;;;;;4.80;1.67;;;10.30;99.90;;;;;;5022549;28;20038;-86
2024/04/04 05:03:39;;;;;;;4.03;1.52;;;10.40;99.90;;;;;;5029226;28;20030;-83
2024/04/04 05:06:07;;;;;;;8.93;1.92;;;10.40;99.90;;;;;;5032430;28;20045;-85
2024/04/04 05:08:35;;;;;;;9.75;2.30;;;10.50;99.90;;;;;;5029198;28;20029;-86
2024/04/04 05:11:01;;;;;;;6.60;1.65;;;10.50;99.90;;;;;;5028480;28;20028;-84
2024/04/04 05:13:29;;;;;;;4.40;1.50;;;10.60;99.90;;;;;;5026879;28;20029;-84
2024/04/04 05:15:55;;;;;;;6.55;1.67;;;10.60;99.90;;;;;;5026249;28;20017;-85
2024/04/04 05:18:24;;;;;;;6.30;1.75;;;10.60;99.90;;;;;;5048030;28;20037;-85
2024/04/04 05:21:04;;;;;;;8.70;2.10;;;10.70;99.90;;;;;;5028996;28;20041;-84
2024/04/04 05:23:31;;;;;;;5.78;1.88;;;10.70;99.90;;;;;;5009626;28;20028;-84
2024/04/04 05:25:56;;;;;;;11.30;2.08;;;10.80;99.90;;;;;;5008978;28;20804;-85
2024/04/04 05:28:26;;;;;;;7.85;2.33;;;10.80;99.90;;;;;;5015132;28;20117;-84
2024/04/04 05:30:53;;;;;;;6.90;2.10;;;10.80;99.90;;;;;;5032291;28;20358;-84
2024/04/04 05:33:18;;;;;;;10.38;1.98;;;10.80;99.90;;;;;;5033445;28;20021;-83
2024/04/04 05:35:44;;;;;;;9.93;2.38;;;10.80;99.90;;;;;;5031924;28;20032;-84
2024/04/04 05:38:09;;;;;;;7.47;2.00;;;10.90;99.90;;;;;;5036428;28;20481;-83
2024/04/04 05:40:35;;;;;;;10.52;2.65;;;10.90;99.90;;;;;;5014367;28;20072;-85
2024/04/04 05:43:01;;;;;;;9.48;2.17;;;11.00;99.90;;;;;;5032298;28;20450;-84
2024/04/04 05:45:27;;;;;;;3.90;1.58;;;11.00;99.90;;;;;;5032852;28;20098;-83
2024/04/04 05:47:52;;;;;;;5.07;1.92;;;11.00;99.90;;;;;;5030940;28;20046;-83
2024/04/04 05:50:18;;;;;;;6.10;2.33;;;11.10;99.90;;;;;;5032489;28;20022;-84
2024/04/04 05:52:43;;;;;;;9.02;2.00;;;11.10;99.90;;;;;;5032723;28;20013;-84
2024/04/04 05:55:11;;;;;;;7.75;1.52;;;11.10;99.90;;;;;;5025341;28;20032;-84
2024/04/04 05:57:36;;;;;;;8.25;1.60;;;11.10;99.90;;;;;;5026608;28;20037;-84
2024/04/04 06:00:02;;;;;;;10.30;1.75;;;11.20;99.90;;;;;;5031185;28;20093;-84
2024/04/04 06:02:28;;;;;;;8.48;1.85;;;11.20;99.90;;;;;;5028832;28;20088;-85
2024/04/04 06:04:53;;;;;;;8.30;1.63;;;11.20;99.90;;;;;;5032105;28;20026;-82
2024/04/04 06:07:20;;;;;;;7.38;1.75;;;11.30;99.90;;;;;;5030743;28;20461;-83
2024/04/04 06:09:46;;;;;;;10.55;2.25;;;11.30;99.90;;;;;;5030390;28;20034;-83
2024/04/04 06:12:11;;;;;;;8.02;2.17;;;11.40;99.90;;;;;;5025463;28;20383;-82
2024/04/04 06:14:38;;;;;;;7.30;1.90;;;11.40;99.90;;;;;;5030925;28;20080;-82
2024/04/04 06:17:04;;;;;;;6.15;2.20;;;11.40;99.90;;;;;;5027850;28;20025;-82
2024/04/04 06:19:30;;;;;;;13.63;2.55;;;11.50;99.90;;;;;;5027418;28;20037;-82
2024/04/04 06:21:56;;;;;;;8.60;1.58;;;11.60;99.90;;;;;;5030485;28;20037;-83
2024/04/04 06:24:22;;;;;;;11.75;2.17;;;11.60;99.90;;;;;;5031854;28;20496;-81
2024/04/04 06:26:49;;;;;;;11.43;1.75;;;11.60;99.90;;;;;;5019986;28;20105;-82
2024/04/04 06:29:19;;;;;;;9.52;2.30;;;11.60;99.90;;;;;;5025030;28;20090;-82
2024/04/04 06:31:45;;;;;;;8.90;1.73;;;11.70;99.90;;;;;;5024373;28;20078;-81
2024/04/04 06:34:12;;;;;;;5.60;1.40;;;11.70;99.90;;;;;;5029772;28;20116;-83
2024/04/04 06:36:37;;;;;;;8.38;1.88;;;11.70;99.90;;;;;;4996839;28;20489;-84
2024/04/04 06:39:04;;;;;;;8.50;1.58;;;11.80;99.90;;;;;;5024733;28;20049;-83
2024/04/04 06:41:32;;;;;;;6.53;1.58;;;11.80;99.90;;;;;;5031531;28;20505;-84
2024/04/04 06:43:58;;;;;;;10.57;1.50;;;11.90;99.90;;;;;;5022348;28;20029;-83
2024/04/04 06:46:23;;;;;;;13.90;1.77;;;11.90;99.90;;;;;;5027330;28;20036;-84
2024/04/04 06:48:50;;;;;;;10.18;1.20;;;11.90;99.90;;;;;;5035558;28;20022;-82
2024/04/04 06:51:15;;;;;;;6.90;0.90;;;12.00;99.90;;;;;;5021311;28;20032;-83
2024/04/04 06:53:41;;;;;;;4.88;1.10;;;12.00;99.90;;;;;;5026763;28;20025;-83
2024/04/04 06:56:07;;;;;;;10.43;1.10;;;12.00;99.90;;;;;;5020155;28;20100;-83
2024/04/04 06:58:32;;;;;;;5.05;1.08;;;12.10;99.90;;;;;;4984917;28;1104499;-87
2024/04/04 07:00:59;;;;;;;8.55;1.25;;;12.10;99.90;;;;;;5006652;28;20084;-84
2024/04/04 07:03:25;;;;;;;5.35;0.90;;;12.10;99.90;;;;;;5026318;28;20022;-84
2024/04/04 07:05:51;;;;;;;5.80;0.95;;;12.20;99.90;;;;;;5026158;28;20133;-85
2024/04/04 07:08:17;;;;;;;7.63;1.00;;;12.20;99.90;;;;;;5030114;22;20569;-84
2024/04/04 07:10:45;;;;;;;5.20;0.80;;;12.20;99.90;;;;;;5027737;28;20145;-83
2024/04/04 07:13:14;;;;;;;8.50;0.82;;;12.30;99.90;;;;;;5017346;28;20444;-85
2024/04/04 07:15:40;;;;;;;8.60;1.00;;;12.20;99.90;;;;;;5034775;28;20072;-85
2024/04/04 07:18:10;;;;;;;5.57;1.27;;;12.30;99.90;;;;;;5031935;28;20025;-85
2024/04/04 07:20:36;;;;;;;4.97;0.65;;;12.30;99.90;;;;;;5037579;28;20045;-85
2024/04/04 07:23:03;;;;;;;6.00;0.82;;;12.30;99.90;;;;;;5035516;28;20025;-84
2024/04/04 07:25:28;;;;;;;6.55;0.90;;;12.30;99.90;;;;;;5026931;28;20033;-84
2024/04/04 07:27:54;;;;;;;7.43;0.88;;;12.30;99.90;;;;;;5021970;28;20540;-85
2024/04/04 07:30:20;;;;;;;7.18;0.88;;;12.30;99.90;;;;;;5034652;28;20415;-84
2024/04/04 07:32:45;;;;;;;3.63;0.80;;;12.30;99.90;;;;;;5034486;28;20010;-85
2024/04/04 07:35:11;;;;;;;5.47;0.95;;;12.30;99.90;;;;;;5032965;28;20038;-84
2024/04/04 07:37:37;;;;;;;8.13;0.85;;;12.40;99.90;;;;;;5034302;28;20030;-85
2024/04/04 07:40:04;;;;;;;4.65;0.80;;;12.40;99.90;;;;;;5032731;28;20485;-84
2024/04/04 07:42:29;;;;;;;6.07;0.75;;;12.40;99.90;;;;;;5027785;28;20026;-86
2024/04/04 07:44:55;;;;;;;5.75;1.02;;;12.40;99.90;;;;;;5004474;28;20060;-84
2024/04/04 07:47:21;;;;;;;8.27;1.20;;;12.50;99.90;;;;;;5010203;28;20057;-85
2024/04/04 07:49:46;;;;;;;5.70;0.80;;;12.50;99.90;;;;;;5016836;28;20037;-84
2024/04/04 07:52:12;;;;;;;3.45;0.52;;;12.50;99.90;;;;;;5014380;28;20583;-85
2024/04/04 07:54:39;;;;;;;7.03;0.80;;;12.50;99.90;;;;;;5016891;28;20083;-84
2024/04/04 07:57:05;;;;;;;7.38;0.80;;;12.50;99.90;;;;;;5033012;28;20393;-85
2024/04/04 07:59:31;;;;;;;5.40;0.70;;;12.50;99.90;;;;;;5028827;28;20080;-84
2024/04/04 08:01:56;;;;;;;5.97;1.05;;;12.50;99.90;;;;;;5030502;28;20501;-85
2024/04/04 08:04:22;;;;;;;4.93;1.15;;;12.40;99.90;;;;;;5030414;28;20116;-85
2024/04/04 08:06:47;;;;;;;3.85;0.60;;;12.50;99.90;;;;;;5034754;28;20025;-85
2024/04/04 08:09:13;;;;;;;5.63;1.15;;;12.50;99.90;;;;;;5028522;28;20120;-84
2024/04/04 08:11:39;;;;;;;3.83;0.65;;;12.50;99.90;;;;;;5030225;28;20030;-84
2024/04/04 08:14:04;;;;;;;4.90;0.98;;;12.50;99.90;;;;;;5032329;28;20033;-83
2024/04/04 08:16:31;;;;;;;3.95;0.55;;;12.50;99.90;;;;;;5030388;28;20124;-85
2024/04/04 08:18:56;;;;;;;5.72;0.90;;;12.50;99.90;;;;;;5035724;28;20053;-85
2024/04/04 08:21:22;;;;;;;6.93;1.27;;;12.50;99.90;;;;;;5034294;28;20096;-85
2024/04/04 08:23:48;;;;;;;5.00;1.45;;;12.50;99.90;;;;;;5024349;28;20060;-85
2024/04/04 08:26:13;;;;;;;4.97;0.70;;;12.50;99.90;;;;;;5034307;28;20040;-85
2024/04/04 08:28:39;;;;;;;4.72;0.60;;;12.50;99.90;;;;;;5036718;28;20030;-85
2024/04/04 08:31:07;;;;;;;4.88;0.90;;;12.50;99.90;;;;;;5034557;28;20021;-85
2024/04/04 08:33:33;;;;;;;3.92;0.60;;;12.60;99.90;;;;;;5033642;28;20140;-84
2024/04/04 08:36:00;;;;;;;4.82;0.63;;;12.60;99.90;;;;;;5034338;28;20022;-85
2024/04/04 08:38:25;;;;;;;3.92;0.63;;;12.70;99.90;;;;;;5034040;28;20052;-84
2024/04/04 08:40:56;;;;;;;2.45;0.43;;;12.60;99.90;;;;;;5033200;28;20034;-84
2024/04/04 08:43:23;;;;;;;5.75;0.60;;;12.70;99.90;;;;;;5015344;28;20547;-85
2024/04/04 08:45:49;;;;;;;4.03;0.50;;;12.70;99.90;;;;;;5035951;28;20067;-84
2024/04/04 08:48:20;;;;;;;4.63;0.60;;;12.70;99.90;;;;;;5034988;28;20034;-85
2024/04/04 08:50:46;;;;;;;6.18;0.50;;;12.70;99.90;;;;;;5035246;28;20034;-85
2024/04/04 08:53:21;;;;;;;2.30;0.52;;;12.60;99.90;;;;;;5037112;28;20021;-84
2024/04/04 08:55:49;;;;;;;5.03;0.65;;;12.70;99.90;;;;;;5034632;28;20124;-85
2024/04/04 08:58:17;;;;;;;5.22;0.85;;;12.80;99.90;;;;;;5027425;28;20098;-86
2024/04/04 09:00:43;;;;;;;3.13;0.60;;;12.80;99.90;;;;;;5030993;28;20065;-85
2024/04/04 09:03:09;;;;;;;2.83;0.57;;;12.90;99.90;;;;;;5036978;28;20045;-85
2024/04/04 09:05:35;;;;;;;5.35;0.82;;;12.90;99.90;;;;;;5033777;28;20113;-85
2024/04/04 09:08:04;;;;;;;5.75;0.85;;;13.00;99.90;;;;;;5034898;28;20100;-85
2024/04/04 09:10:30;;;;;;;4.95;0.90;;;13.00;99.90;;;;;;5034627;28;20040;-85
2024/04/04 09:13:06;;;;;;;3.25;0.75;;;13.10;99.90;;;;;;5034863;28;20453;-85
2024/04/04 09:15:32;;;;;;;4.65;0.95;;;13.20;99.90;;;;;;5036303;28;20037;-85
2024/04/04 09:18:04;;;;;;;5.13;1.02;;;13.10;99.90;;;;;;5034395;28;20028;-85
2024/04/04 09:20:33;;;;;;;;;;;13.10;99.90;;;;;;5030121;28;20481;-85
2024/04/04 09:23:03;;;;;;;4.45;0.95;;;13.10;99.90;;;;;;5034264;28;19916;-85
2024/04/04 09:25:29;;;;;;;5.13;1.27;;;13.10;99.90;;;;;;5029225;28;20531;-84
2024/04/04 09:27:56;;;;;;;4.35;0.90;;;13.00;99.90;;;;;;5026040;28;20156;-85
2024/04/04 09:30:25;;;;;;;3.28;0.80;;;13.00;99.90;;;;;;5030303;28;20029;-85
2024/04/04 09:32:55;;;;;;;3.85;0.70;;;13.00;99.90;;;;;;5036588;28;20065;-86
2024/04/04 09:35:21;;;;;;;3.83;0.77;;;13.00;99.90;;;;;;5034425;28;20108;-85
2024/04/04 09:37:48;;;;;;;2.95;0.70;;;13.00;99.90;;;;;;5032895;28;20029;-84
2024/04/04 09:40:15;;;;;;;4.43;0.60;;;13.10;99.90;;;;;;5031807;28;20069;-85
2024/04/04 09:42:44;;;;;;;3.47;0.90;;;13.20;99.90;;;;;;5038933;28;20058;-85
2024/04/04 09:45:10;;;;;;;3.10;0.68;;;13.30;99.90;;;;;;5035132;28;20496;-85
2024/04/04 09:47:46;;;;;;;3.25;0.52;;;13.40;99.90;;;;;;5032160;28;20037;-83
2024/04/04 09:50:15;;;;;;;3.58;0.60;;;13.40;99.90;;;;;;5028982;28;20025;-85
2024/04/04 09:52:41;;;;;;;4.07;0.70;;;13.20;99.90;;;;;;5032094;28;20021;-84
2024/04/04 09:55:15;;;;;;;2.20;0.57;;;13.10;99.90;;;;;;5022297;28;20441;-84
2024/04/04 09:57:41;;;;;;;5.07;0.63;;;13.00;99.90;;;;;;5023500;28;20036;-85
2024/04/04 10:00:17;;;;;;;4.10;1.05;;;12.90;99.90;;;;;;5026815;28;20037;-85
2024/04/04 10:02:54;;;;;;;2.78;0.65;;;12.90;99.90;;;;;;5034320;28;20033;-85
2024/04/04 10:05:22;;;;;;;5.28;0.65;;;12.80;99.90;;;;;;5020883;28;20025;-85
2024/04/04 10:07:48;;;;;;;2.65;0.50;;;12.80;99.90;;;;;;5016965;28;20050;-85
2024/04/04 10:10:19;;;;;;;2.25;0.45;;;12.80;99.90;;;;;;5029132;28;20033;-85
2024/04/04 10:12:54;;;;;;;4.82;0.50;;;12.90;99.90;;;;;;5034176;28;20698;-84
2024/04/04 10:15:21;;;;;;;2.10;0.50;;;12.90;99.90;;;;;;5010881;28;20033;-83
2024/04/04 10:17:51;;;;;;;5.95;0.77;;;13.00;99.90;;;;;;5014901;28;20034;-85
2024/04/04 10:20:18;;;;;;;5.15;0.70;;;13.10;99.90;;;;;;5017194;28;20038;-84
2024/04/04 10:22:44;;;;;;;2.85;0.57;;;13.20;99.90;;;;;;5017532;28;20028;-85
2024/04/04 10:25:10;;;;;;;3.67;0.57;;;13.40;99.90;;;;;;5028382;28;20029;-86
2024/04/04 10:27:37;;;;;;;2.05;0.30;;;13.60;99.90;;;;;;5027520;28;20029;-85
2024/04/04 10:30:03;;;;;;;3.47;0.40;;;13.80;99.90;;;;;;5034758;28;20501;-85
2024/04/04 10:32:30;;;;;;;2.80;0.40;;;13.90;99.90;;;;;;5034325;28;20029;-84
2024/04/04 10:35:05;;;;;;;2.03;0.40;;;14.10;99.90;;;;;;5034696;28;20121;-84
2024/04/04 10:37:32;;;;;;;1.88;0.32;;;14.20;99.90;;;;;;5038434;28;20021;-84
2024/04/04 10:39:58;;;;;;;2.65;0.30;;;14.20;99.90;;;;;;5022961;28;20041;-84
2024/04/04 10:42:25;;;;;;;2.17;0.40;;;14.30;99.90;;;;;;5041205;28;20048;-85
2024/04/04 10:44:53;;;;;;;1.90;0.35;;;14.30;99.90;;;;;;5034590;28;20032;-83
2024/04/04 10:47:18;;;;;;;1.85;0.30;;;14.50;99.90;;;;;;5017854;28;20038;-84
2024/04/04 10:49:44;;;;;;;3.03;0.50;;;14.60;99.90;;;;;;5033908;28;20095;-84
2024/04/04 10:52:10;;;;;;;2.88;0.32;;;14.80;99.90;;;;;;5034342;28;20022;-85
2024/04/04 10:54:36;;;;;;;3.70;0.30;;;15.00;99.90;;;;;;5033386;28;20021;-85
2024/04/04 10:57:03;;;;;;;4.10;0.30;;;15.10;99.90;;;;;;5033923;28;20070;-84
2024/04/04 10:59:29;;;;;;;5.18;0.85;;;15.20;99.90;;;;;;5032016;28;20072;-84
2024/04/04 11:02:02;;;;;;;2.78;0.25;;;15.30;99.90;;;;;;5031555;28;20030;-84
2024/04/04 11:04:31;;;;;;;1.58;0.30;;;15.30;99.90;;;;;;5025933;28;20109;-82
2024/04/04 11:06:57;;;;;;;3.67;0.70;;;15.30;99.90;;;;;;5014859;28;20529;-84
2024/04/04 11:09:25;;;;;;;2.55;0.30;;;15.30;99.90;;;;;;5020913;28;20060;-82
2024/04/04 11:11:56;;;;;;;1.45;0.20;;;15.30;99.90;;;;;;5031310;28;20108;-85
2024/04/04 11:14:26;;;;;;;4.10;0.20;;;15.40;99.90;;;;;;5032555;28;20025;-84
2024/04/04 11:16:54;;;;;;;2.40;0.40;;;15.50;99.90;;;;;;5030222;28;20029;-85
2024/04/04 11:19:20;;;;;;;4.20;0.40;;;15.70;99.90;;;;;;5037292;28;20064;-84
2024/04/04 11:21:50;;;;;;;4.47;0.30;;;15.70;99.90;;;;;;5025902;28;20516;-84
2024/04/04 11:24:16;;;;;;;2.42;0.20;;;15.60;99.90;;;;;;5034337;28;20029;-85
2024/04/04 11:26:42;;;;;;;5.35;0.63;;;15.50;99.90;;;;;;5034128;28;20025;-85
2024/04/04 11:29:09;;;;;;;5.13;0.40;;;15.50;99.90;;;;;;5029930;28;20025;-85
2024/04/04 11:31:34;;;;;;;2.33;0.30;;;15.50;99.90;;;;;;5045224;28;20115;-85
2024/04/04 11:34:00;;;;;;;6.85;0.30;;;15.70;99.90;;;;;;5031970;28;20116;-84
2024/04/04 11:36:25;;;;;;;3.03;0.20;;;15.80;99.90;;;;;;5035109;28;20481;-85
2024/04/04 11:38:51;;;;;;;3.80;0.50;;;15.80;99.90;;;;;;5020791;28;20032;-83
2024/04/04 11:41:27;;;;;;;4.68;0.40;;;15.70;99.90;;;;;;5020174;28;20041;-85
2024/04/04 11:43:53;;;;;;;5.10;0.50;;;15.70;99.90;;;;;;5006634;28;20577;-83
2024/04/04 11:46:19;;;;;;;5.13;0.35;;;15.60;99.90;;;;;;5033129;28;20093;-84
2024/04/04 11:48:44;;;;;;;5.25;0.20;;;15.70;99.90;;;;;;5030455;28;20032;-83
2024/04/04 11:51:11;;;;;;;3.47;0.40;;;15.70;99.90;;;;;;5033731;28;20043;-84
2024/04/04 11:53:36;;;;;;;5.88;0.52;;;15.70;99.90;;;;;;5037506;28;20025;-83
2024/04/04 11:56:02;;;;;;;4.22;0.63;;;15.80;99.90;;;;;;5035946;28;20524;-86
2024/04/04 11:58:29;;;;;;;4.13;0.40;;;15.70;99.90;;;;;;5028777;28;20022;-84
2024/04/04 12:00:55;;;;;;;5.70;0.50;;;15.60;99.90;;;;;;5032228;28;20037;-85
2024/04/04 12:03:21;;;;;;;6.03;0.50;;;15.60;99.90;;;;;;5017860;28;20026;-85
2024/04/04 12:05:47;;;;;;;9.90;0.60;;;15.60;99.90;;;;;;5035110;28;20048;-85
2024/04/04 12:08:12;;;;;;;7.80;0.77;;;15.60;99.90;;;;;;5039003;28;20052;-86
2024/04/04 12:10:38;;;;;;;10.15;0.55;;;15.80;99.90;;;;;;5025614;28;20056;-83
2024/04/04 12:13:04;;;;;;;4.68;0.40;;;16.00;99.90;;;;;;5032314;28;20405;-84
2024/04/04 12:15:31;;;;;;;8.10;0.63;;;16.30;99.90;;;;;;5035857;28;20033;-86
2024/04/04 12:20:41;;;;;;;5.85;0.60;;;16.30;99.90;;;;;;5029305;28;20044;-87
2024/04/04 12:23:07;;;;;;;5.68;0.63;;;16.20;99.90;;;;;;5031702;28;20025;-86
2024/04/04 12:25:33;;;;;;;9.00;0.68;;;16.00;99.90;;;;;;5026741;28;20026;-86
2024/04/04 12:28:00;;;;;;;6.68;0.50;;;16.00;99.90;;;;;;5032804;28;20022;-86
2024/04/04 12:30:26;;;;;;;12.38;0.73;;;15.90;99.90;;;;;;5035875;28;20436;-86
2024/04/04 12:32:52;;;;;;;7.43;0.80;;;15.90;99.90;;;;;;5036070;28;20029;-85
2024/04/04 12:35:17;;;;;;;8.13;1.02;;;15.80;99.90;;;;;;5033392;28;20405;-86
2024/04/04 12:37:43;;;;;;;11.48;1.48;;;15.60;99.90;;;;;;5032550;28;20025;-86
2024/04/04 12:40:09;;;;;;;7.60;1.33;;;15.50;99.90;;;;;;5022266;28;20033;-85
2024/04/04 12:42:34;;;;;;;9.30;0.90;;;15.50;99.90;;;;;;5036172;28;20095;-86
2024/04/04 12:45:00;;;;;;;10.70;1.52;;;15.70;99.90;;;;;;5030333;28;20030;-86
2024/04/04 12:47:25;;;;;;;7.18;1.10;;;15.90;99.90;;;;;;5024783;28;20052;-84
2024/04/04 12:49:51;;;;;;;6.32;0.65;;;15.80;99.90;;;;;;5028165;28;20029;-85